sensor_id;sensor_type;location;lat;lon;timestamp;temperature;humidity
40932;DHT22;36257;46.052;12.540;2022-11-20T00:00:04;8.30;94.90
40932;DHT22;36257;46.052;12.540;2022-11-20T00:02:30;8.30;94.90
40932;DHT22;36257;46.052;12.540;2022-11-20T00:04:55;8.20;95.60
40932;DHT22;36257;46.052;12.540;2022-11-20T00:07:21;8.10;95.80
40932;DHT22;36257;46.052;12.540;2022-11-20T00:09:46;8.10;96.00
40932;DHT22;36257;46.052;12.540;2022-11-20T00:12:12;8.10;95.90
40932;DHT22;36257;46.052;12.540;2022-11-20T00:14:38;8.00;96.00
40932;DHT22;36257;46.052;12.540;2022-11-20T00:17:04;7.90;96.60
40932;DHT22;36257;46.052;12.540;2022-11-20T00:19:30;7.90;96.50
40932;DHT22;36257;46.052;12.540;2022-11-20T00:21:55;7.90;96.40
40932;DHT22;36257;46.052;12.540;2022-11-20T00:24:21;7.80;96.60
40932;DHT22;36257;46.052;12.540;2022-11-20T00:26:46;7.80;96.60
40932;DHT22;36257;46.052;12.540;2022-11-20T00:29:12;7.90;96.60
40932;DHT22;36257;46.052;12.540;2022-11-20T00:31:38;8.00;96.60
40932;DHT22;36257;46.052;12.540;2022-11-20T00:34:03;8.00;96.70
40932;DHT22;36257;46.052;12.540;2022-11-20T00:36:32;8.00;96.50
40932;DHT22;36257;46.052;12.540;2022-11-20T00:38:58;8.00;96.20
40932;DHT22;36257;46.052;12.540;2022-11-20T00:41:25;8.00;96.00
40932;DHT22;36257;46.052;12.540;2022-11-20T00:43:52;8.00;96.10
40932;DHT22;36257;46.052;12.540;2022-11-20T00:46:20;8.00;96.10
40932;DHT22;36257;46.052;12.540;2022-11-20T00:48:46;8.00;96.00
40932;DHT22;36257;46.052;12.540;2022-11-20T00:51:17;8.00;95.90
40932;DHT22;36257;46.052;12.540;2022-11-20T00:53:43;8.00;96.10
40932;DHT22;36257;46.052;12.540;2022-11-20T00:56:15;8.00;95.70
40932;DHT22;36257;46.052;12.540;2022-11-20T00:58:43;7.90;95.90
40932;DHT22;36257;46.052;12.540;2022-11-20T01:01:16;7.90;96.20
40932;DHT22;36257;46.052;12.540;2022-11-20T01:03:47;7.80;96.20
40932;DHT22;36257;46.052;12.540;2022-11-20T01:06:16;7.80;96.30
40932;DHT22;36257;46.052;12.540;2022-11-20T01:08:42;7.70;96.60
40932;DHT22;36257;46.052;12.540;2022-11-20T01:11:11;7.80;96.20
40932;DHT22;36257;46.052;12.540;2022-11-20T01:13:38;7.70;96.40
40932;DHT22;36257;46.052;12.540;2022-11-20T01:16:08;7.60;96.30
40932;DHT22;36257;46.052;12.540;2022-11-20T01:18:35;7.60;96.50
40932;DHT22;36257;46.052;12.540;2022-11-20T01:21:23;7.70;96.40
40932;DHT22;36257;46.052;12.540;2022-11-20T01:23:49;7.70;96.20
40932;DHT22;36257;46.052;12.540;2022-11-20T01:26:19;7.70;96.00
40932;DHT22;36257;46.052;12.540;2022-11-20T01:28:45;7.60;96.00
40932;DHT22;36257;46.052;12.540;2022-11-20T01:31:12;7.50;96.30
40932;DHT22;36257;46.052;12.540;2022-11-20T01:33:39;7.50;96.60
40932;DHT22;36257;46.052;12.540;2022-11-20T01:36:06;7.40;96.70
40932;DHT22;36257;46.052;12.540;2022-11-20T01:38:31;7.40;96.60
40932;DHT22;36257;46.052;12.540;2022-11-20T01:40:57;7.50;96.60
40932;DHT22;36257;46.052;12.540;2022-11-20T01:43:23;7.50;96.50
40932;DHT22;36257;46.052;12.540;2022-11-20T01:49:16;7.50;96.50
40932;DHT22;36257;46.052;12.540;2022-11-20T01:52:00;7.50;96.10
40932;DHT22;36257;46.052;12.540;2022-11-20T01:55:13;7.40;95.90
40932;DHT22;36257;46.052;12.540;2022-11-20T01:57:36;7.40;96.20
40932;DHT22;36257;46.052;12.540;2022-11-20T02:00:07;7.30;96.60
40932;DHT22;36257;46.052;12.540;2022-11-20T02:02:34;7.20;96.70
40932;DHT22;36257;46.052;12.540;2022-11-20T02:05:05;7.20;96.90
40932;DHT22;36257;46.052;12.540;2022-11-20T02:07:34;7.10;97.40
40932;DHT22;36257;46.052;12.540;2022-11-20T02:10:01;7.00;97.40
40932;DHT22;36257;46.052;12.540;2022-11-20T02:12:27;7.00;97.50
40932;DHT22;36257;46.052;12.540;2022-11-20T02:15:11;7.00;97.50
40932;DHT22;36257;46.052;12.540;2022-11-20T02:17:37;7.00;97.40
40932;DHT22;36257;46.052;12.540;2022-11-20T02:20:04;7.00;97.60
40932;DHT22;36257;46.052;12.540;2022-11-20T02:22:36;7.00;97.70
40932;DHT22;36257;46.052;12.540;2022-11-20T02:25:05;7.10;97.70
40932;DHT22;36257;46.052;12.540;2022-11-20T02:27:31;7.10;97.20
40932;DHT22;36257;46.052;12.540;2022-11-20T02:30:02;7.20;97.00
40932;DHT22;36257;46.052;12.540;2022-11-20T02:32:32;7.20;97.00
40932;DHT22;36257;46.052;12.540;2022-11-20T02:35:05;7.10;96.90
40932;DHT22;36257;46.052;12.540;2022-11-20T02:37:35;7.20;96.70
40932;DHT22;36257;46.052;12.540;2022-11-20T02:40:02;7.10;96.70
40932;DHT22;36257;46.052;12.540;2022-11-20T02:42:28;7.10;96.60
40932;DHT22;36257;46.052;12.540;2022-11-20T02:44:53;7.00;96.60
40932;DHT22;36257;46.052;12.540;2022-11-20T02:47:19;7.00;96.50
40932;DHT22;36257;46.052;12.540;2022-11-20T02:49:44;7.00;96.50
40932;DHT22;36257;46.052;12.540;2022-11-20T02:52:10;6.90;96.90
40932;DHT22;36257;46.052;12.540;2022-11-20T02:54:36;6.90;97.10
40932;DHT22;36257;46.052;12.540;2022-11-20T02:57:01;6.90;97.30
40932;DHT22;36257;46.052;12.540;2022-11-20T02:59:27;6.80;97.30
40932;DHT22;36257;46.052;12.540;2022-11-20T03:01:52;6.80;97.30
40932;DHT22;36257;46.052;12.540;2022-11-20T03:04:18;6.80;97.60
40932;DHT22;36257;46.052;12.540;2022-11-20T03:06:44;6.80;97.70
40932;DHT22;36257;46.052;12.540;2022-11-20T03:09:09;6.80;97.80
40932;DHT22;36257;46.052;12.540;2022-11-20T03:11:35;6.80;97.70
40932;DHT22;36257;46.052;12.540;2022-11-20T03:14:04;6.80;97.40
40932;DHT22;36257;46.052;12.540;2022-11-20T03:16:31;6.70;97.20
40932;DHT22;36257;46.052;12.540;2022-11-20T03:18:56;6.70;97.10
40932;DHT22;36257;46.052;12.540;2022-11-20T03:21:22;6.70;96.70
40932;DHT22;36257;46.052;12.540;2022-11-20T03:23:48;6.70;97.00
40932;DHT22;36257;46.052;12.540;2022-11-20T03:26:19;6.70;97.00
40932;DHT22;36257;46.052;12.540;2022-11-20T03:28:48;6.60;97.20
40932;DHT22;36257;46.052;12.540;2022-11-20T03:31:15;6.60;97.00
40932;DHT22;36257;46.052;12.540;2022-11-20T03:33:42;6.60;96.50
40932;DHT22;36257;46.052;12.540;2022-11-20T03:36:10;6.60;96.70
40932;DHT22;36257;46.052;12.540;2022-11-20T03:38:37;6.60;96.50
40932;DHT22;36257;46.052;12.540;2022-11-20T03:41:08;6.60;96.30
40932;DHT22;36257;46.052;12.540;2022-11-20T03:43:34;6.60;96.10
40932;DHT22;36257;46.052;12.540;2022-11-20T03:46:00;6.70;95.90
40932;DHT22;36257;46.052;12.540;2022-11-20T03:48:27;6.70;95.60
40932;DHT22;36257;46.052;12.540;2022-11-20T03:50:54;6.70;95.00
40932;DHT22;36257;46.052;12.540;2022-11-20T03:53:31;6.60;94.70
40932;DHT22;36257;46.052;12.540;2022-11-20T03:55:56;6.50;95.00
40932;DHT22;36257;46.052;12.540;2022-11-20T03:58:22;6.50;95.10
40932;DHT22;36257;46.052;12.540;2022-11-20T04:00:48;6.50;95.50
40932;DHT22;36257;46.052;12.540;2022-11-20T04:03:13;6.50;95.30
40932;DHT22;36257;46.052;12.540;2022-11-20T04:05:39;6.50;95.50
40932;DHT22;36257;46.052;12.540;2022-11-20T04:08:05;6.50;95.20
40932;DHT22;36257;46.052;12.540;2022-11-20T04:10:30;6.50;95.50
40932;DHT22;36257;46.052;12.540;2022-11-20T04:12:56;6.50;95.30
40932;DHT22;36257;46.052;12.540;2022-11-20T04:15:21;6.50;95.10
40932;DHT22;36257;46.052;12.540;2022-11-20T04:17:47;6.40;95.20
40932;DHT22;36257;46.052;12.540;2022-11-20T04:20:13;6.30;95.40
40932;DHT22;36257;46.052;12.540;2022-11-20T04:22:38;6.30;95.70
40932;DHT22;36257;46.052;12.540;2022-11-20T04:25:04;6.30;95.70
40932;DHT22;36257;46.052;12.540;2022-11-20T04:27:30;6.30;95.60
40932;DHT22;36257;46.052;12.540;2022-11-20T04:29:56;6.30;94.90
40932;DHT22;36257;46.052;12.540;2022-11-20T04:32:21;6.30;94.80
40932;DHT22;36257;46.052;12.540;2022-11-20T04:34:47;6.30;94.60
40932;DHT22;36257;46.052;12.540;2022-11-20T04:37:13;6.30;94.80
40932;DHT22;36257;46.052;12.540;2022-11-20T04:39:38;6.20;95.10
40932;DHT22;36257;46.052;12.540;2022-11-20T04:42:04;6.20;95.00
40932;DHT22;36257;46.052;12.540;2022-11-20T04:44:48;6.20;95.40
40932;DHT22;36257;46.052;12.540;2022-11-20T04:47:13;6.20;95.40
40932;DHT22;36257;46.052;12.540;2022-11-20T04:49:39;6.20;95.50
40932;DHT22;36257;46.052;12.540;2022-11-20T04:52:05;6.20;95.50
40932;DHT22;36257;46.052;12.540;2022-11-20T04:54:31;6.20;95.40
40932;DHT22;36257;46.052;12.540;2022-11-20T04:56:56;6.10;95.20
40932;DHT22;36257;46.052;12.540;2022-11-20T04:59:22;6.10;95.00
40932;DHT22;36257;46.052;12.540;2022-11-20T05:01:48;6.20;94.70
40932;DHT22;36257;46.052;12.540;2022-11-20T05:04:13;6.10;94.00
40932;DHT22;36257;46.052;12.540;2022-11-20T05:06:39;6.10;93.90
40932;DHT22;36257;46.052;12.540;2022-11-20T05:09:04;6.10;92.90
40932;DHT22;36257;46.052;12.540;2022-11-20T05:11:31;6.10;92.50
40932;DHT22;36257;46.052;12.540;2022-11-20T05:13:58;6.20;92.60
40932;DHT22;36257;46.052;12.540;2022-11-20T05:16:25;6.20;92.50
40932;DHT22;36257;46.052;12.540;2022-11-20T05:18:52;6.20;93.00
40932;DHT22;36257;46.052;12.540;2022-11-20T05:21:18;6.30;92.90
40932;DHT22;36257;46.052;12.540;2022-11-20T05:23:44;6.20;93.00
40932;DHT22;36257;46.052;12.540;2022-11-20T05:26:16;6.20;93.10
40932;DHT22;36257;46.052;12.540;2022-11-20T05:28:42;6.20;93.30
40932;DHT22;36257;46.052;12.540;2022-11-20T05:31:12;6.20;93.00
40932;DHT22;36257;46.052;12.540;2022-11-20T05:33:43;6.30;93.00
40932;DHT22;36257;46.052;12.540;2022-11-20T05:36:10;6.20;93.40
40932;DHT22;36257;46.052;12.540;2022-11-20T05:38:36;6.20;93.50
40932;DHT22;36257;46.052;12.540;2022-11-20T05:41:06;6.20;93.30
40932;DHT22;36257;46.052;12.540;2022-11-20T05:43:33;6.20;93.30
40932;DHT22;36257;46.052;12.540;2022-11-20T05:46:00;6.20;93.40
40932;DHT22;36257;46.052;12.540;2022-11-20T05:48:26;6.20;93.60
40932;DHT22;36257;46.052;12.540;2022-11-20T05:50:51;6.30;93.80
40932;DHT22;36257;46.052;12.540;2022-11-20T05:53:17;6.30;93.70
40932;DHT22;36257;46.052;12.540;2022-11-20T05:55:42;6.30;93.70
40932;DHT22;36257;46.052;12.540;2022-11-20T05:58:08;6.30;93.50
40932;DHT22;36257;46.052;12.540;2022-11-20T06:00:34;6.20;93.70
40932;DHT22;36257;46.052;12.540;2022-11-20T06:02:59;6.10;93.90
40932;DHT22;36257;46.052;12.540;2022-11-20T06:05:25;6.10;94.10
40932;DHT22;36257;46.052;12.540;2022-11-20T06:07:50;6.20;94.40
40932;DHT22;36257;46.052;12.540;2022-11-20T06:10:16;6.10;94.80
40932;DHT22;36257;46.052;12.540;2022-11-20T06:12:42;6.10;95.20
40932;DHT22;36257;46.052;12.540;2022-11-20T06:15:08;6.10;95.30
40932;DHT22;36257;46.052;12.540;2022-11-20T06:17:33;6.20;95.60
40932;DHT22;36257;46.052;12.540;2022-11-20T06:19:59;6.10;95.80
40932;DHT22;36257;46.052;12.540;2022-11-20T06:22:24;6.20;95.80
40932;DHT22;36257;46.052;12.540;2022-11-20T06:24:50;6.20;95.80
40932;DHT22;36257;46.052;12.540;2022-11-20T06:27:16;6.20;96.20
40932;DHT22;36257;46.052;12.540;2022-11-20T06:29:42;6.10;96.20
40932;DHT22;36257;46.052;12.540;2022-11-20T06:32:07;6.10;95.80
40932;DHT22;36257;46.052;12.540;2022-11-20T06:34:33;6.10;95.80
40932;DHT22;36257;46.052;12.540;2022-11-20T06:36:59;6.00;96.40
40932;DHT22;36257;46.052;12.540;2022-11-20T06:39:25;6.00;96.60
40932;DHT22;36257;46.052;12.540;2022-11-20T06:41:50;6.00;96.50
40932;DHT22;36257;46.052;12.540;2022-11-20T06:44:16;5.90;96.60
40932;DHT22;36257;46.052;12.540;2022-11-20T06:46:41;5.90;96.80
40932;DHT22;36257;46.052;12.540;2022-11-20T06:51:43;5.80;97.80
40932;DHT22;36257;46.052;12.540;2022-11-20T06:56:41;5.90;97.50
40932;DHT22;36257;46.052;12.540;2022-11-20T06:59:07;5.90;97.40
40932;DHT22;36257;46.052;12.540;2022-11-20T07:01:33;6.00;97.10
40932;DHT22;36257;46.052;12.540;2022-11-20T07:04:00;6.00;96.70
40932;DHT22;36257;46.052;12.540;2022-11-20T07:06:26;6.00;96.30
40932;DHT22;36257;46.052;12.540;2022-11-20T07:08:52;6.00;96.20
40932;DHT22;36257;46.052;12.540;2022-11-20T07:11:18;6.00;95.80
40932;DHT22;36257;46.052;12.540;2022-11-20T07:13:43;6.00;95.60
40932;DHT22;36257;46.052;12.540;2022-11-20T07:16:09;6.00;95.80
40932;DHT22;36257;46.052;12.540;2022-11-20T07:18:35;6.00;96.00
40932;DHT22;36257;46.052;12.540;2022-11-20T07:21:06;5.90;96.20
40932;DHT22;36257;46.052;12.540;2022-11-20T07:23:33;5.90;96.20
40932;DHT22;36257;46.052;12.540;2022-11-20T07:26:06;5.90;96.50
40932;DHT22;36257;46.052;12.540;2022-11-20T07:28:32;5.90;96.50
40932;DHT22;36257;46.052;12.540;2022-11-20T07:30:58;5.90;96.20
40932;DHT22;36257;46.052;12.540;2022-11-20T07:33:24;6.00;95.90
40932;DHT22;36257;46.052;12.540;2022-11-20T07:35:50;6.10;96.00
40932;DHT22;36257;46.052;12.540;2022-11-20T07:38:19;6.20;95.70
40932;DHT22;36257;46.052;12.540;2022-11-20T07:40:45;6.20;96.10
40932;DHT22;36257;46.052;12.540;2022-11-20T07:43:11;6.20;96.30
40932;DHT22;36257;46.052;12.540;2022-11-20T07:45:38;6.30;96.00
40932;DHT22;36257;46.052;12.540;2022-11-20T07:48:20;6.30;96.00
40932;DHT22;36257;46.052;12.540;2022-11-20T07:50:46;6.40;96.10
40932;DHT22;36257;46.052;12.540;2022-11-20T07:53:12;6.50;96.00
40932;DHT22;36257;46.052;12.540;2022-11-20T07:55:39;6.60;95.50
40932;DHT22;36257;46.052;12.540;2022-11-20T07:58:05;6.70;95.20
40932;DHT22;36257;46.052;12.540;2022-11-20T08:00:31;6.70;95.40
40932;DHT22;36257;46.052;12.540;2022-11-20T08:02:57;6.80;95.30
40932;DHT22;36257;46.052;12.540;2022-11-20T08:05:23;6.90;95.40
40932;DHT22;36257;46.052;12.540;2022-11-20T08:07:49;7.00;95.60
40932;DHT22;36257;46.052;12.540;2022-11-20T09:12:19;13.40;78.40
40932;DHT22;36257;46.052;12.540;2022-11-20T09:14:44;13.60;77.50
40932;DHT22;36257;46.052;12.540;2022-11-20T09:17:10;13.80;76.10
40932;DHT22;36257;46.052;12.540;2022-11-20T09:19:39;13.80;76.40
40932;DHT22;36257;46.052;12.540;2022-11-20T09:22:04;13.80;77.80
40932;DHT22;36257;46.052;12.540;2022-11-20T09:24:30;13.90;79.60
40932;DHT22;36257;46.052;12.540;2022-11-20T09:26:55;14.20;78.90
40932;DHT22;36257;46.052;12.540;2022-11-20T09:29:21;14.30;78.50
40932;DHT22;36257;46.052;12.540;2022-11-20T09:31:47;14.60;77.80
40932;DHT22;36257;46.052;12.540;2022-11-20T09:34:12;14.70;78.00
40932;DHT22;36257;46.052;12.540;2022-11-20T09:36:38;14.90;76.60
40932;DHT22;36257;46.052;12.540;2022-11-20T09:39:03;15.10;77.70
40932;DHT22;36257;46.052;12.540;2022-11-20T09:52:26;15.70;74.50
40932;DHT22;36257;46.052;12.540;2022-11-20T09:54:56;15.70;71.40
40932;DHT22;36257;46.052;12.540;2022-11-20T09:57:36;15.90;72.70
40932;DHT22;36257;46.052;12.540;2022-11-20T10:00:04;15.80;71.50
40932;DHT22;36257;46.052;12.540;2022-11-20T10:05:59;15.80;72.50
40932;DHT22;36257;46.052;12.540;2022-11-20T10:08:41;16.10;72.40
40932;DHT22;36257;46.052;12.540;2022-11-20T10:11:30;16.40;72.30
40932;DHT22;36257;46.052;12.540;2022-11-20T10:24:21;17.10;69.80
40932;DHT22;36257;46.052;12.540;2022-11-20T10:27:14;17.40;68.30
40932;DHT22;36257;46.052;12.540;2022-11-20T10:29:47;17.20;67.90
40932;DHT22;36257;46.052;12.540;2022-11-20T10:32:19;17.20;69.00
40932;DHT22;36257;46.052;12.540;2022-11-20T10:34:58;17.30;71.00
40932;DHT22;36257;46.052;12.540;2022-11-20T10:37:27;17.70;68.60
40932;DHT22;36257;46.052;12.540;2022-11-20T10:42:56;17.70;67.60
40932;DHT22;36257;46.052;12.540;2022-11-20T10:47:55;17.30;68.20
40932;DHT22;36257;46.052;12.540;2022-11-20T10:50:22;17.40;69.70
40932;DHT22;36257;46.052;12.540;2022-11-20T10:53:08;17.30;69.50
40932;DHT22;36257;46.052;12.540;2022-11-20T10:55:47;17.40;71.50
40932;DHT22;36257;46.052;12.540;2022-11-20T10:58:39;17.40;67.80
40932;DHT22;36257;46.052;12.540;2022-11-20T11:01:17;17.00;68.80
40932;DHT22;36257;46.052;12.540;2022-11-20T11:03:44;17.20;69.70
40932;DHT22;36257;46.052;12.540;2022-11-20T11:06:14;17.30;68.80
40932;DHT22;36257;46.052;12.540;2022-11-20T11:08:44;17.10;67.70
40932;DHT22;36257;46.052;12.540;2022-11-20T11:11:26;16.80;67.00
40932;DHT22;36257;46.052;12.540;2022-11-20T11:13:53;16.90;68.80
40932;DHT22;36257;46.052;12.540;2022-11-20T11:16:29;17.40;68.10
40932;DHT22;36257;46.052;12.540;2022-11-20T11:19:12;17.40;68.60
40932;DHT22;36257;46.052;12.540;2022-11-20T11:21:37;17.70;65.90
40932;DHT22;36257;46.052;12.540;2022-11-20T11:24:25;17.70;66.00
40932;DHT22;36257;46.052;12.540;2022-11-20T11:26:57;17.70;63.40
40932;DHT22;36257;46.052;12.540;2022-11-20T11:29:24;17.50;65.00
40932;DHT22;36257;46.052;12.540;2022-11-20T11:32:06;17.30;63.90
40932;DHT22;36257;46.052;12.540;2022-11-20T11:34:32;16.90;64.80
40932;DHT22;36257;46.052;12.540;2022-11-20T11:36:59;17.00;67.30
40932;DHT22;36257;46.052;12.540;2022-11-20T11:39:27;17.40;65.40
40932;DHT22;36257;46.052;12.540;2022-11-20T11:41:54;17.50;64.60
40932;DHT22;36257;46.052;12.540;2022-11-20T11:44:21;17.50;65.30
40932;DHT22;36257;46.052;12.540;2022-11-20T11:47:26;17.60;65.40
40932;DHT22;36257;46.052;12.540;2022-11-20T11:55:40;16.70;66.60
40932;DHT22;36257;46.052;12.540;2022-11-20T12:05:59;15.40;69.80
40932;DHT22;36257;46.052;12.540;2022-11-20T12:11:11;15.40;72.60
40932;DHT22;36257;46.052;12.540;2022-11-20T12:16:18;15.70;71.50
40932;DHT22;36257;46.052;12.540;2022-11-20T12:18:50;15.90;70.00
40932;DHT22;36257;46.052;12.540;2022-11-20T12:30:08;17.10;68.20
40932;DHT22;36257;46.052;12.540;2022-11-20T12:43:37;17.60;65.70
40932;DHT22;36257;46.052;12.540;2022-11-20T12:46:35;17.90;66.30
40932;DHT22;36257;46.052;12.540;2022-11-20T12:49:37;18.10;65.10
40932;DHT22;36257;46.052;12.540;2022-11-20T12:55:03;18.20;64.20
40932;DHT22;36257;46.052;12.540;2022-11-20T13:08:35;18.90;65.00
40932;DHT22;36257;46.052;12.540;2022-11-20T13:11:09;19.10;63.30
40932;DHT22;36257;46.052;12.540;2022-11-20T13:14:24;19.20;64.00
40932;DHT22;36257;46.052;12.540;2022-11-20T13:16:43;19.10;63.00
40932;DHT22;36257;46.052;12.540;2022-11-20T13:19:15;19.00;64.10
40932;DHT22;36257;46.052;12.540;2022-11-20T13:21:44;19.20;65.00
40932;DHT22;36257;46.052;12.540;2022-11-20T13:24:24;19.30;64.00
40932;DHT22;36257;46.052;12.540;2022-11-20T13:29:37;19.20;62.90
40932;DHT22;36257;46.052;12.540;2022-11-20T13:34:50;19.10;65.70
40932;DHT22;36257;46.052;12.540;2022-11-20T13:37:30;18.80;65.70
40932;DHT22;36257;46.052;12.540;2022-11-20T13:45:30;16.80;70.30
40932;DHT22;36257;46.052;12.540;2022-11-20T13:47:58;16.40;70.50
40932;DHT22;36257;46.052;12.540;2022-11-20T13:54:01;16.00;73.20
40932;DHT22;36257;46.052;12.540;2022-11-20T13:59:04;15.40;74.60
40932;DHT22;36257;46.052;12.540;2022-11-20T14:01:34;15.20;74.50
40932;DHT22;36257;46.052;12.540;2022-11-20T14:04:07;15.10;74.60
40932;DHT22;36257;46.052;12.540;2022-11-20T14:06:45;14.80;75.30
40932;DHT22;36257;46.052;12.540;2022-11-20T14:09:32;14.50;76.60
40932;DHT22;36257;46.052;12.540;2022-11-20T14:11:58;14.30;78.10
40932;DHT22;36257;46.052;12.540;2022-11-20T14:14:26;14.10;77.70
40932;DHT22;36257;46.052;12.540;2022-11-20T14:17:04;13.90;78.30
40932;DHT22;36257;46.052;12.540;2022-11-20T14:19:30;13.80;78.80
40932;DHT22;36257;46.052;12.540;2022-11-20T14:24:44;13.50;79.70
40932;DHT22;36257;46.052;12.540;2022-11-20T14:27:15;13.50;80.00
40932;DHT22;36257;46.052;12.540;2022-11-20T14:29:41;13.50;80.20
40932;DHT22;36257;46.052;12.540;2022-11-20T14:32:08;13.30;79.70
40932;DHT22;36257;46.052;12.540;2022-11-20T14:34:41;13.20;80.30
40932;DHT22;36257;46.052;12.540;2022-11-20T14:37:17;13.20;80.20
40932;DHT22;36257;46.052;12.540;2022-11-20T14:39:50;13.10;81.40
40932;DHT22;36257;46.052;12.540;2022-11-20T14:42:27;13.10;82.70
40932;DHT22;36257;46.052;12.540;2022-11-20T14:44:58;13.00;81.20
40932;DHT22;36257;46.052;12.540;2022-11-20T14:47:26;13.00;81.80
40932;DHT22;36257;46.052;12.540;2022-11-20T14:49:54;13.10;82.40
40932;DHT22;36257;46.052;12.540;2022-11-20T14:52:25;13.00;82.40
40932;DHT22;36257;46.052;12.540;2022-11-20T14:54:56;13.00;83.00
40932;DHT22;36257;46.052;12.540;2022-11-20T14:57:31;13.10;82.70
40932;DHT22;36257;46.052;12.540;2022-11-20T15:02:42;13.00;83.60
40932;DHT22;36257;46.052;12.540;2022-11-20T15:05:08;13.00;83.00
40932;DHT22;36257;46.052;12.540;2022-11-20T15:07:40;12.90;82.70
40932;DHT22;36257;46.052;12.540;2022-11-20T15:10:11;12.90;82.40
40932;DHT22;36257;46.052;12.540;2022-11-20T15:12:56;12.80;81.70
40932;DHT22;36257;46.052;12.540;2022-11-20T15:15:49;12.80;81.90
40932;DHT22;36257;46.052;12.540;2022-11-20T15:18:18;12.70;82.20
40932;DHT22;36257;46.052;12.540;2022-11-20T15:20:44;12.70;83.40
40932;DHT22;36257;46.052;12.540;2022-11-20T15:23:12;12.60;83.50
40932;DHT22;36257;46.052;12.540;2022-11-20T15:25:39;12.60;83.40
40932;DHT22;36257;46.052;12.540;2022-11-20T15:28:16;12.50;83.60
40932;DHT22;36257;46.052;12.540;2022-11-20T15:30:43;12.50;83.70
40932;DHT22;36257;46.052;12.540;2022-11-20T15:33:10;12.50;84.60
40932;DHT22;36257;46.052;12.540;2022-11-20T15:35:35;12.40;84.50
40932;DHT22;36257;46.052;12.540;2022-11-20T15:38:01;12.40;84.60
40932;DHT22;36257;46.052;12.540;2022-11-20T15:40:27;12.30;84.80
40932;DHT22;36257;46.052;12.540;2022-11-20T15:42:52;12.40;85.10
40932;DHT22;36257;46.052;12.540;2022-11-20T15:45:41;12.40;85.50
40932;DHT22;36257;46.052;12.540;2022-11-20T15:48:38;12.30;85.90
40932;DHT22;36257;46.052;12.540;2022-11-20T15:53:37;12.10;86.50
40932;DHT22;36257;46.052;12.540;2022-11-20T15:56:04;12.10;86.70
40932;DHT22;36257;46.052;12.540;2022-11-20T15:58:30;12.00;87.30
40932;DHT22;36257;46.052;12.540;2022-11-20T16:00:55;11.90;87.30
40932;DHT22;36257;46.052;12.540;2022-11-20T16:03:21;11.90;87.50
40932;DHT22;36257;46.052;12.540;2022-11-20T16:05:47;11.80;87.80
40932;DHT22;36257;46.052;12.540;2022-11-20T16:08:13;11.80;88.30
40932;DHT22;36257;46.052;12.540;2022-11-20T16:10:39;11.70;87.80
40932;DHT22;36257;46.052;12.540;2022-11-20T16:13:13;11.70;87.80
40932;DHT22;36257;46.052;12.540;2022-11-20T16:15:59;11.70;87.70
40932;DHT22;36257;46.052;12.540;2022-11-20T16:18:27;11.70;87.60
40932;DHT22;36257;46.052;12.540;2022-11-20T16:20:55;11.70;87.70
40932;DHT22;36257;46.052;12.540;2022-11-20T16:23:21;11.70;87.80
40932;DHT22;36257;46.052;12.540;2022-11-20T16:25:47;11.60;88.10
40932;DHT22;36257;46.052;12.540;2022-11-20T16:28:13;11.60;88.70
40932;DHT22;36257;46.052;12.540;2022-11-20T16:30:39;11.60;89.00
40932;DHT22;36257;46.052;12.540;2022-11-20T16:33:10;11.50;89.50
40932;DHT22;36257;46.052;12.540;2022-11-20T16:35:37;11.50;89.70
40932;DHT22;36257;46.052;12.540;2022-11-20T16:38:03;11.50;89.70
40932;DHT22;36257;46.052;12.540;2022-11-20T16:40:28;11.50;89.90
40932;DHT22;36257;46.052;12.540;2022-11-20T16:42:54;11.50;89.90
40932;DHT22;36257;46.052;12.540;2022-11-20T16:45:20;11.30;90.40
40932;DHT22;36257;46.052;12.540;2022-11-20T16:47:46;11.20;90.40
40932;DHT22;36257;46.052;12.540;2022-11-20T16:50:11;11.20;90.70
40932;DHT22;36257;46.052;12.540;2022-11-20T16:52:37;11.30;90.50
40932;DHT22;36257;46.052;12.540;2022-11-20T16:55:03;11.30;90.50
40932;DHT22;36257;46.052;12.540;2022-11-20T16:57:32;11.20;90.30
40932;DHT22;36257;46.052;12.540;2022-11-20T16:59:58;11.20;90.40
40932;DHT22;36257;46.052;12.540;2022-11-20T17:02:33;11.20;90.80
40932;DHT22;36257;46.052;12.540;2022-11-20T17:04:59;11.20;90.80
40932;DHT22;36257;46.052;12.540;2022-11-20T17:07:25;11.20;90.70
40932;DHT22;36257;46.052;12.540;2022-11-20T17:09:50;11.20;90.90
40932;DHT22;36257;46.052;12.540;2022-11-20T17:12:16;11.20;91.40
40932;DHT22;36257;46.052;12.540;2022-11-20T17:14:42;11.20;91.40
40932;DHT22;36257;46.052;12.540;2022-11-20T17:17:07;11.10;91.70
40932;DHT22;36257;46.052;12.540;2022-11-20T17:19:33;11.00;92.30
40932;DHT22;36257;46.052;12.540;2022-11-20T17:21:59;11.10;92.40
40932;DHT22;36257;46.052;12.540;2022-11-20T17:24:25;11.10;92.70
40932;DHT22;36257;46.052;12.540;2022-11-20T17:26:50;11.10;92.50
40932;DHT22;36257;46.052;12.540;2022-11-20T17:29:17;11.10;92.00
40932;DHT22;36257;46.052;12.540;2022-11-20T17:31:45;11.10;91.80
40932;DHT22;36257;46.052;12.540;2022-11-20T17:34:13;11.10;92.00
40932;DHT22;36257;46.052;12.540;2022-11-20T17:36:39;11.10;91.90
40932;DHT22;36257;46.052;12.540;2022-11-20T17:39:10;11.00;91.90
40932;DHT22;36257;46.052;12.540;2022-11-20T17:41:35;10.90;92.10
40932;DHT22;36257;46.052;12.540;2022-11-20T17:44:01;10.90;92.50
40932;DHT22;36257;46.052;12.540;2022-11-20T17:46:29;10.80;92.90
40932;DHT22;36257;46.052;12.540;2022-11-20T17:48:57;10.80;93.00
40932;DHT22;36257;46.052;12.540;2022-11-20T17:51:28;10.80;93.00
40932;DHT22;36257;46.052;12.540;2022-11-20T17:53:59;10.80;93.00
40932;DHT22;36257;46.052;12.540;2022-11-20T17:56:26;10.90;92.90
40932;DHT22;36257;46.052;12.540;2022-11-20T17:59:11;10.90;93.00
40932;DHT22;36257;46.052;12.540;2022-11-20T18:01:38;10.80;93.20
40932;DHT22;36257;46.052;12.540;2022-11-20T18:04:04;10.80;92.50
40932;DHT22;36257;46.052;12.540;2022-11-20T18:06:31;10.70;92.70
40932;DHT22;36257;46.052;12.540;2022-11-20T18:08:58;10.70;91.90
40932;DHT22;36257;46.052;12.540;2022-11-20T18:11:28;10.60;92.10
40932;DHT22;36257;46.052;12.540;2022-11-20T18:13:57;10.60;92.20
40932;DHT22;36257;46.052;12.540;2022-11-20T18:16:44;10.50;91.40
40932;DHT22;36257;46.052;12.540;2022-11-20T18:19:12;10.50;91.30
40932;DHT22;36257;46.052;12.540;2022-11-20T18:21:38;10.40;91.00
40932;DHT22;36257;46.052;12.540;2022-11-20T18:24:04;10.40;90.20
40932;DHT22;36257;46.052;12.540;2022-11-20T18:26:30;10.30;90.10
40932;DHT22;36257;46.052;12.540;2022-11-20T18:28:56;10.30;88.60
40932;DHT22;36257;46.052;12.540;2022-11-20T18:31:22;10.20;88.30